createdAt,value
2019-05-23T00:00:30.525Z,54133.17
2019-05-23T00:05:51.102Z,54076.65
2019-05-23T00:11:34.875Z,54112.98
2019-05-23T00:16:55.734Z,54144.27
2019-05-23T00:22:15.092Z,54106.93
2019-05-23T00:27:35.374Z,54118.03
2019-05-23T00:32:56.715Z,54110.96
2019-05-23T00:38:16.979Z,54110.96
2019-05-23T00:43:36.337Z,54095.82
2019-05-23T00:48:56.335Z,54111.97
2019-05-23T00:54:16.057Z,54126.11
2019-05-23T00:59:35.072Z,54113.99
2019-05-23T01:04:54.272Z,54134.18
2019-05-23T01:10:15.489Z,54123.08
2019-05-23T01:15:35.985Z,54122.07
2019-05-23T01:21:02.388Z,54095.82
2019-05-23T01:26:22.657Z,54079.68
2019-05-23T01:31:43.228Z,54116.01
2019-05-23T01:37:06.156Z,54134.18
2019-05-23T01:42:26.373Z,54081.70
2019-05-23T01:47:47.811Z,54088.76
2019-05-23T01:53:08.560Z,54102.89
2019-05-23T01:58:27.810Z,54110.96
2019-05-23T02:03:47.326Z,54129.13
2019-05-23T02:09:09.225Z,54099.86
2019-05-23T02:14:28.565Z,54142.25
2019-05-23T02:19:48.119Z,54095.82
2019-05-23T02:25:10.160Z,54125.09
2019-05-23T02:30:34.951Z,54130.14
2019-05-23T02:35:51.768Z,54103.90
2019-05-23T02:41:11.974Z,54099.86
2019-05-23T02:46:34.938Z,54154.36
2019-05-23T02:51:56.605Z,54107.94
2019-05-23T02:57:19.328Z,54084.72
2019-05-23T03:02:50.976Z,54102.89
2019-05-23T03:08:10.311Z,54115.00
2019-05-23T03:13:32.143Z,54100.87
2019-05-23T03:18:55.316Z,54126.11
2019-05-23T03:24:14.109Z,54126.11
2019-05-23T03:29:34.524Z,54153.36
2019-05-23T03:34:54.801Z,54112.98
2019-05-23T03:40:13.670Z,54128.12
2019-05-23T03:45:39.274Z,54097.84
2019-05-23T03:50:55.647Z,54131.15
2019-05-23T03:56:15.173Z,54106.93
2019-05-23T04:01:46.965Z,54119.04
2019-05-23T04:06:55.332Z,54084.72
2019-05-23T04:12:13.929Z,54118.03
2019-05-23T04:17:32.622Z,54141.24
2019-05-23T04:22:51.254Z,54156.38
2019-05-23T04:28:11.540Z,54141.24
2019-05-23T04:33:30.773Z,54143.26
2019-05-23T04:38:51.921Z,54151.34
2019-05-23T04:44:12.202Z,54143.26
2019-05-23T04:49:30.922Z,54102.89
2019-05-23T04:54:50.622Z,54152.35
2019-05-23T05:00:13.329Z,54169.50
2019-05-23T05:05:32.034Z,54149.32
2019-05-23T05:10:51.060Z,54144.27
2019-05-23T05:16:09.805Z,54140.23
2019-05-23T05:21:28.431Z,54143.26
2019-05-23T05:26:47.166Z,54163.45
2019-05-23T05:32:06.804Z,54139.23
2019-05-23T05:37:25.444Z,54160.42
2019-05-23T05:42:45.831Z,54150.33
2019-05-23T05:48:04.903Z,54155.37
2019-05-23T05:53:23.748Z,54145.28
2019-05-23T05:58:42.717Z,54120.05
2019-05-23T06:04:02.415Z,54161.43
2019-05-23T06:09:22.928Z,54130.14
2019-05-23T06:14:41.571Z,54140.23
2019-05-23T06:20:00.827Z,54154.36
2019-05-23T06:25:19.983Z,54120.05
2019-05-23T06:30:39.428Z,54156.38
2019-05-23T06:35:58.264Z,54130.14
2019-05-23T06:41:18.478Z,54124.09
2019-05-23T06:46:37.624Z,54153.36
2019-05-23T06:51:56.191Z,54120.05
2019-05-23T06:57:14.908Z,54152.35
2019-05-23T07:02:33.526Z,54151.34
2019-05-23T07:07:52.202Z,54153.36
2019-05-23T07:13:10.756Z,54135.19
2019-05-23T07:18:29.449Z,54135.19
2019-05-23T07:23:48.162Z,54122.07
2019-05-23T07:29:10.468Z,54135.19
2019-05-23T07:34:29.621Z,54159.41
2019-05-23T07:39:48.781Z,54137.21
2019-05-23T07:45:09.319Z,54135.19
2019-05-23T07:50:28.045Z,54122.07
2019-05-23T07:55:48.919Z,54160.42
2019-05-23T08:01:09.200Z,54162.44
2019-05-23T08:06:28.023Z,54146.29
2019-05-23T08:11:46.754Z,54163.45
2019-05-23T08:17:07.094Z,54157.39
2019-05-23T08:22:26.111Z,54144.27
2019-05-23T08:27:44.775Z,54162.44
2019-05-23T08:33:05.196Z,54126.11
2019-05-23T08:38:24.530Z,54162.44
2019-05-23T08:43:43.231Z,54127.11
2019-05-23T08:49:01.867Z,54150.33
2019-05-23T08:54:20.445Z,54169.50
2019-05-23T08:59:39.946Z,54148.31
2019-05-23T09:05:05.234Z,54155.37
2019-05-23T09:10:20.258Z,54141.24
2019-05-23T09:15:38.914Z,54148.31
2019-05-23T09:20:58.044Z,54125.09
2019-05-23T09:26:16.946Z,54116.01
2019-05-23T09:31:35.945Z,54145.28
2019-05-23T09:36:54.568Z,54121.06
2019-05-23T09:42:13.508Z,54150.33
2019-05-23T09:47:32.137Z,54151.34
2019-05-23T09:52:50.867Z,54123.08
2019-05-23T09:58:10.036Z,54163.45
2019-05-23T10:03:28.654Z,54124.09
2019-05-23T10:08:47.418Z,54166.48
2019-05-23T10:14:07.790Z,54116.01
2019-05-23T10:19:26.403Z,54136.20
2019-05-23T10:24:45.175Z,54143.26
2019-05-23T10:30:07.543Z,54167.48
2019-05-23T10:35:26.748Z,54136.20
2019-05-23T10:40:45.737Z,54099.86
2019-05-23T10:46:04.366Z,54149.32
2019-05-23T10:51:23.010Z,54165.47
2019-05-23T10:56:41.627Z,54155.37
2019-05-23T11:02:00.262Z,54149.32
2019-05-23T11:07:19.054Z,54164.46
2019-05-23T11:12:37.949Z,54126.11
2019-05-23T11:17:56.592Z,54146.29
2019-05-23T11:23:16.874Z,54146.29
2019-05-23T11:28:37.302Z,54149.32
2019-05-23T11:33:56.018Z,54121.06
2019-05-23T11:39:15.536Z,54166.48
2019-05-23T11:44:34.277Z,54128.12
2019-05-23T11:49:52.916Z,54130.14
2019-05-23T11:55:12.521Z,54157.39
2019-05-23T12:00:53.781Z,54142.25
2019-05-23T12:06:12.739Z,54126.11
2019-05-23T12:11:35.830Z,54135.19
2019-05-23T12:16:52.113Z,54152.35
2019-05-23T12:22:10.859Z,54093.81
2019-05-23T12:27:29.892Z,54138.21
2019-05-23T12:32:48.503Z,54107.94
2019-05-23T12:38:07.721Z,54135.19
2019-05-23T12:43:26.459Z,54129.13
2019-05-23T12:48:46.738Z,54136.20
2019-05-23T12:54:05.605Z,54135.19
2019-05-23T12:59:26.302Z,54129.13
2019-05-23T13:04:45.536Z,54129.13
2019-05-23T13:10:05.695Z,54106.93
2019-05-23T13:15:25.229Z,54119.04
2019-05-23T13:20:44.167Z,54133.17
2019-05-23T13:26:03.191Z,54135.19
2019-05-23T13:31:21.665Z,54128.12
2019-05-23T13:36:40.515Z,54123.08
2019-05-23T13:41:59.194Z,54135.19
2019-05-23T13:47:18.206Z,54127.11
2019-05-23T13:52:37.022Z,54137.21
2019-05-23T13:57:55.739Z,54125.09
2019-05-23T14:03:14.395Z,54125.09
2019-05-23T14:08:33.064Z,54105.92
2019-05-23T14:13:59.629Z,54109.96
2019-05-23T14:19:12.366Z,54123.08
2019-05-23T14:24:31.083Z,54113.99
2019-05-23T14:29:49.805Z,54092.80
2019-05-23T14:35:09.858Z,54115.00
2019-05-23T14:40:29.461Z,54156.38
2019-05-23T14:45:57.126Z,54128.12
2019-05-23T14:51:33.921Z,54090.78
2019-05-23T14:56:53.101Z,54126.11
2019-05-23T15:02:13.613Z,54094.82
2019-05-23T15:07:33.882Z,54120.05
2019-05-23T15:12:52.545Z,54137.21
2019-05-23T15:18:11.109Z,54105.92
2019-05-23T15:23:29.943Z,54102.89
2019-05-23T15:28:48.539Z,54136.20
2019-05-23T15:34:07.389Z,54079.68
2019-05-23T15:39:27.471Z,54118.03
2019-05-23T15:44:46.134Z,54136.20
2019-05-23T15:50:11.286Z,54111.97
2019-05-23T15:55:54.344Z,54139.23
2019-05-23T16:01:15.180Z,54124.09
2019-05-23T16:06:34.770Z,54097.84
2019-05-23T16:11:53.873Z,54121.06
2019-05-23T16:17:12.934Z,54126.11
2019-05-23T16:22:31.955Z,54136.20
2019-05-23T16:27:51.468Z,54100.87
2019-05-23T16:33:10.170Z,54086.74
2019-05-23T16:38:30.674Z,54131.15
2019-05-23T16:43:49.363Z,54121.06
2019-05-23T16:49:08.041Z,54096.84
2019-05-23T16:54:28.253Z,54083.71
2019-05-23T16:59:51.546Z,54126.11
2019-05-23T17:05:16.276Z,54097.84
2019-05-23T17:10:48.529Z,54095.82
2019-05-23T17:16:21.033Z,54083.71
2019-05-23T17:21:44.360Z,54091.79
2019-05-23T17:27:04.860Z,54107.94
2019-05-23T17:32:28.073Z,54103.90
2019-05-23T17:37:46.907Z,54098.86
2019-05-23T17:43:05.794Z,54117.02
2019-05-23T17:48:25.400Z,54056.46
2019-05-23T17:53:44.608Z,54108.95
2019-05-23T17:59:04.040Z,54067.57
2019-05-23T18:04:23.761Z,54092.80
2019-05-23T18:09:42.563Z,54106.93
2019-05-23T18:15:04.852Z,54089.77
2019-05-23T18:20:24.594Z,54088.76
2019-05-23T18:25:48.004Z,54109.96
2019-05-23T18:31:15.038Z,54099.86
2019-05-23T18:36:34.030Z,54080.68
2019-05-23T18:41:53.099Z,54113.99
2019-05-23T18:47:16.455Z,54073.62
2019-05-23T18:52:35.267Z,54111.97
2019-05-23T18:57:54.070Z,54080.68
2019-05-23T19:03:13.482Z,54100.87
2019-05-23T19:08:32.581Z,54136.20
2019-05-23T19:13:51.321Z,54095.82
2019-05-23T19:19:10.250Z,54071.60
2019-05-23T19:24:28.902Z,54079.68
2019-05-23T19:29:47.800Z,54111.97
2019-05-23T19:35:08.080Z,54084.72
2019-05-23T19:40:26.866Z,54088.76
2019-05-23T19:45:45.746Z,54077.66
2019-05-23T19:51:06.077Z,54032.24
2019-05-23T19:56:24.839Z,54071.60
2019-05-23T20:01:48.183Z,54091.79
2019-05-23T20:07:08.523Z,54076.65
2019-05-23T20:12:27.318Z,54075.64
2019-05-23T20:17:46.138Z,54057.47
2019-05-23T20:23:04.797Z,54066.56
2019-05-23T20:28:24.721Z,54051.42
2019-05-23T20:33:43.404Z,54065.55
2019-05-23T20:39:02.033Z,54042.34
2019-05-23T20:44:20.686Z,54048.39
2019-05-23T20:49:39.598Z,54085.73
2019-05-23T20:54:58.254Z,54056.46
2019-05-23T21:00:34.029Z,54059.49
2019-05-23T21:05:52.981Z,54080.68
2019-05-23T21:11:11.965Z,54051.42
2019-05-23T21:16:30.612Z,54017.10
2019-05-23T21:21:49.290Z,54058.48
2019-05-23T21:27:07.927Z,54048.39
2019-05-23T21:32:26.685Z,54081.70
2019-05-23T21:37:45.324Z,54044.35
2019-05-23T21:43:04.375Z,54015.08
2019-05-23T21:48:23.071Z,54015.08
2019-05-23T21:53:41.711Z,54031.23
2019-05-23T21:59:00.478Z,54059.49
2019-05-23T22:04:36.139Z,54016.09
2019-05-23T22:09:54.718Z,54030.22
2019-05-23T22:15:16.246Z,54038.30
2019-05-23T22:20:35.153Z,54023.16
2019-05-23T22:25:53.865Z,54030.22
2019-05-23T22:31:12.547Z,54029.21
2019-05-23T22:36:31.299Z,54059.49
2019-05-23T22:41:49.964Z,53995.91
2019-05-23T22:47:08.658Z,54019.12
2019-05-23T22:52:27.301Z,54026.19
2019-05-23T22:57:45.811Z,54021.14
2019-05-23T23:03:04.718Z,54033.25
2019-05-23T23:08:23.812Z,54038.30
2019-05-23T23:13:42.507Z,54045.36
2019-05-23T23:19:01.383Z,54007.01
2019-05-23T23:24:20.194Z,53993.89
2019-05-23T23:29:38.890Z,54036.28
2019-05-23T23:34:57.505Z,54014.07
2019-05-23T23:40:16.394Z,54022.15
2019-05-23T23:45:53.028Z,54065.55
2019-05-23T23:51:29.852Z,54004.99
2019-05-23T23:57:06.066Z,54006.00
